Time;durP1;ratioP1;P1;durP2;ratioP2;P2;SDS_P1;SDS_P2;PMS_P1;PMS_P2;Temp;Humidity;BMP_temperature;BMP_pressure;BME280_temperature;BME280_humidity;BME280_pressure;Samples;Min_cycle;Max_cycle;Signal;HPM_P1;HPM_P2
2022/07/16 00:02:32;;;;;;;2.73;0.93;;;;;;;15.20;77.47;100318.28;5092081;28;20036;-69
2022/07/16 00:04:57;;;;;;;2.30;1.00;;;;;;;15.18;77.79;100329.22;5092222;28;20043;-69
2022/07/16 00:07:23;;;;;;;1.37;1.13;;;;;;;15.09;77.22;100322.41;5092656;28;20040;-69
2022/07/16 00:09:48;;;;;;;1.77;1.00;;;;;;;15.07;77.36;100324.47;5092273;28;20041;-68
2022/07/16 00:12:14;;;;;;;3.57;1.30;;;;;;;15.17;77.95;100346.34;5092507;28;20035;-69
2022/07/16 00:14:40;;;;;;;3.03;1.10;;;;;;;15.15;78.30;100345.72;5103166;28;20411;-70
2022/07/16 00:17:05;;;;;;;2.90;1.07;;;;;;;14.90;78.67;100323.16;5110498;28;20042;-69
2022/07/16 00:19:31;;;;;;;2.03;1.30;;;;;;;15.03;79.20;100346.50;5109661;28;20059;-69
2022/07/16 00:21:57;;;;;;;2.30;1.20;;;;;;;14.90;79.55;100328.53;5103604;28;20036;-70
2022/07/16 00:24:24;;;;;;;1.47;1.00;;;;;;;14.96;79.56;100343.81;5094385;28;20032;-68
2022/07/16 00:26:55;;;;;;;2.03;1.20;;;;;;;15.01;79.60;100362.78;5092016;28;20042;-69
2022/07/16 00:29:22;;;;;;;2.07;1.20;;;;;;;15.02;79.66;100367.13;5092228;28;20043;-69
2022/07/16 00:31:49;;;;;;;3.13;1.50;;;;;;;15.03;80.20;100359.91;5091691;28;20469;-69
2022/07/16 00:34:15;;;;;;;2.00;1.47;;;;;;;15.10;79.75;100361.59;5091988;28;20028;-70
2022/07/16 00:36:41;;;;;;;1.30;1.10;;;;;;;15.10;79.13;100366.97;5092140;28;20127;-68
2022/07/16 00:39:08;;;;;;;3.50;1.20;;;;;;;15.09;79.06;100367.19;5092038;28;20509;-69
2022/07/16 00:41:35;;;;;;;1.87;1.20;;;;;;;15.04;79.41;100366.97;5091807;28;20055;-67
2022/07/16 00:44:04;;;;;;;2.67;1.10;;;;;;;15.02;79.78;100372.50;5091620;28;20036;-69
2022/07/16 00:46:29;;;;;;;2.00;0.90;;;;;;;15.01;79.73;100370.00;5091772;28;20031;-69
2022/07/16 00:48:56;;;;;;;2.07;1.20;;;;;;;15.04;79.92;100378.50;5091839;28;20047;-69
2022/07/16 00:51:23;;;;;;;2.23;1.27;;;;;;;15.07;79.37;100380.78;5091724;28;20036;-69
2022/07/16 00:53:50;;;;;;;2.23;1.10;;;;;;;15.06;79.56;100381.00;5091812;28;20093;-68
2022/07/16 00:56:16;;;;;;;4.93;1.20;;;;;;;15.01;79.75;100364.66;5091698;28;20040;-68
2022/07/16 00:58:43;;;;;;;5.67;1.30;;;;;;;15.03;79.93;100370.63;5094479;28;20437;-70
2022/07/16 01:01:10;;;;;;;1.17;0.90;;;;;;;15.00;80.12;100377.22;5095639;28;20040;-68
2022/07/16 01:03:37;;;;;;;3.03;0.83;;;;;;;14.90;80.08;100355.34;5095733;28;20046;-68
2022/07/16 01:06:04;;;;;;;1.77;0.90;;;;;;;14.99;80.01;100364.03;5095451;28;20042;-69
2022/07/16 01:08:32;;;;;;;2.00;1.30;;;;;;;14.93;79.91;100371.03;5095262;28;20453;-68
2022/07/16 01:10:58;;;;;;;3.20;1.83;;;;;;;14.97;79.88;100379.50;5095210;28;20036;-69
2022/07/16 01:13:24;;;;;;;4.53;1.50;;;;;;;14.86;79.97;100362.97;5095452;28;20513;-68
2022/07/16 01:15:50;;;;;;;3.00;1.10;;;;;;;14.88;80.13;100374.31;5095694;28;20032;-67
2022/07/16 01:18:16;;;;;;;1.20;1.10;;;;;;;14.82;80.15;100363.56;5095288;28;20100;-68
2022/07/16 01:20:41;;;;;;;2.70;1.10;;;;;;;14.82;79.65;100368.94;5095332;28;20031;-68
2022/07/16 01:23:07;;;;;;;5.50;1.33;;;;;;;14.68;80.17;100359.16;5095137;28;20428;-69
2022/07/16 01:25:33;;;;;;;2.43;1.20;;;;;;;14.74;80.35;100377.94;5094767;28;20497;-68
2022/07/16 01:27:58;;;;;;;3.23;1.13;;;;;;;14.74;80.27;100377.13;5095110;28;20131;-69
2022/07/16 01:30:25;;;;;;;6.50;1.83;;;;;;;14.77;80.32;100382.09;5094888;28;20055;-69
2022/07/16 01:32:51;;;;;;;4.03;1.50;;;;;;;14.80;79.83;100377.16;5094971;28;20177;-69
2022/07/16 01:35:17;;;;;;;2.27;1.40;;;;;;;14.81;79.54;100376.16;5094989;28;20086;-68
2022/07/16 01:37:43;;;;;;;3.33;1.23;;;;;;;14.83;79.72;100378.63;5094862;28;20480;-68
2022/07/16 01:40:08;;;;;;;3.00;1.23;;;;;;;14.83;79.72;100381.31;5094848;28;20032;-68
2022/07/16 01:42:34;;;;;;;7.60;1.70;;;;;;;14.69;79.73;100360.81;5095536;28;20028;-68
2022/07/16 01:45:00;;;;;;;1.83;1.43;;;;;;;14.71;79.76;100377.50;5095549;28;20135;-69
2022/07/16 01:47:26;;;;;;;4.53;1.37;;;;;;;14.69;79.61;100371.53;5094932;28;20525;-68
2022/07/16 01:49:51;;;;;;;2.37;1.20;;;;;;;14.70;79.66;100381.22;5094951;28;20046;-69
2022/07/16 01:52:20;;;;;;;1.63;1.30;;;;;;;14.72;79.30;100377.31;5076442;28;20121;-69
2022/07/16 01:54:50;;;;;;;;;;;;;;;14.77;79.13;100382.94;5094802;28;20392;-69
2022/07/16 01:57:16;;;;;;;2.43;1.20;;;;;;;14.67;79.35;100376.25;5094718;28;19920;-69
2022/07/16 01:59:42;;;;;;;5.13;1.60;;;;;;;14.59;79.65;100371.06;5110440;28;20119;-68
2022/07/16 02:02:08;;;;;;;2.83;1.63;;;;;;;14.68;79.37;100385.97;5094623;28;20042;-69
2022/07/16 02:04:34;;;;;;;4.30;1.23;;;;;;;14.67;79.04;100381.63;5094217;28;20040;-68
2022/07/16 02:07:00;;;;;;;7.43;1.30;;;;;;;14.65;79.24;100386.34;5094218;28;20430;-70
2022/07/16 02:09:26;;;;;;;1.77;1.07;;;;;;;14.63;78.97;100394.59;5093817;28;20036;-68
2022/07/16 02:11:52;;;;;;;1.50;1.20;;;;;;;14.50;78.88;100371.25;5094261;28;20036;-67
2022/07/16 02:14:18;;;;;;;1.90;1.20;;;;;;;14.59;79.47;100405.91;5094209;28;20039;-69
2022/07/16 02:16:43;;;;;;;2.50;1.30;;;;;;;14.47;79.64;100408.31;5094014;28;20035;-69
2022/07/16 02:19:09;;;;;;;3.87;1.20;;;;;;;14.36;79.67;100390.91;5094077;28;20487;-69
2022/07/16 02:21:35;;;;;;;2.63;1.20;;;;;;;14.38;80.09;100410.28;5094171;28;20105;-69
2022/07/16 02:24:00;;;;;;;3.60;1.00;;;;;;;14.33;80.38;100412.72;5093810;28;20085;-69
2022/07/16 02:26:26;;;;;;;1.53;1.30;;;;;;;14.32;80.18;100416.41;5093716;28;20548;-68
2022/07/16 02:28:53;;;;;;;2.70;1.10;;;;;;;14.28;80.16;100415.16;5093927;28;20060;-68
2022/07/16 02:31:19;;;;;;;1.80;1.23;;;;;;;14.40;80.20;100416.25;5093680;28;20375;-69
2022/07/16 02:33:45;;;;;;;2.03;1.23;;;;;;;14.62;79.36;100421.59;5093365;28;20093;-69
2022/07/16 02:36:11;;;;;;;1.20;1.00;;;;;;;14.82;78.37;100423.38;5093718;28;20040;-69
2022/07/16 02:38:36;;;;;;;1.70;1.30;;;;;;;14.97;77.87;100425.91;5093795;28;20118;-69
2022/07/16 02:41:02;;;;;;;3.17;1.20;;;;;;;14.96;77.23;100418.88;5093644;28;20032;-69
2022/07/16 02:43:28;;;;;;;3.40;1.40;;;;;;;14.88;77.46;100419.06;5093736;28;20040;-69
2022/07/16 02:45:53;;;;;;;2.77;1.00;;;;;;;14.85;77.24;100424.81;5093434;28;20036;-69
2022/07/16 02:48:19;;;;;;;4.57;1.83;;;;;;;14.93;77.42;100424.66;5093503;28;20112;-69
2022/07/16 02:50:45;;;;;;;6.03;1.07;;;;;;;14.93;77.05;100413.94;5094044;28;20197;-68
2022/07/16 02:53:10;;;;;;;0.93;0.93;;;;;;;15.04;76.70;100426.78;5075157;28;20116;-68
2022/07/16 02:55:36;;;;;;;1.93;1.10;;;;;;;15.11;76.47;100419.59;5093361;28;20043;-69
2022/07/16 02:58:01;;;;;;;2.53;1.20;;;;;;;15.16;76.33;100414.44;5093463;28;20111;-69
2022/07/16 03:00:28;;;;;;;2.97;1.20;;;;;;;15.35;75.67;100428.13;5093531;28;20544;-68
2022/07/16 03:02:54;;;;;;;1.97;1.00;;;;;;;15.52;74.82;100429.41;5093150;28;20043;-69
2022/07/16 03:05:20;;;;;;;2.17;1.33;;;;;;;16.03;72.71;100421.66;5093080;28;20035;-69
2022/07/16 03:07:45;;;;;;;2.87;1.40;;;;;;;16.77;70.26;100441.22;5093056;28;20043;-68
2022/07/16 03:10:12;;;;;;;3.13;1.47;;;;;;;17.81;66.33;100435.63;5093187;28;20055;-68
2022/07/16 03:12:38;;;;;;;4.63;1.93;;;;;;;18.31;64.10;100431.09;5093159;28;20119;-68
2022/07/16 03:15:05;;;;;;;3.03;2.07;;;;;;;19.30;60.40;100432.72;5093187;28;20123;-68
2022/07/16 03:17:30;;;;;;;3.30;1.43;;;;;;;20.10;57.90;100435.94;5093099;28;20035;-69
2022/07/16 03:19:56;;;;;;;3.07;1.10;;;;;;;19.93;57.40;100437.66;5092463;28;20032;-70
2022/07/16 03:22:21;;;;;;;2.07;1.30;;;;;;;18.71;60.59;100431.53;5092954;28;20043;-69
2022/07/16 03:24:47;;;;;;;8.13;3.13;;;;;;;17.70;63.82;100444.41;5092899;28;20036;-69
2022/07/16 03:27:14;;;;;;;4.60;2.27;;;;;;;17.58;64.64;100430.75;5092970;28;20138;-69
2022/07/16 03:29:40;;;;;;;3.40;2.30;;;;;;;19.54;59.02;100441.78;5092855;28;20051;-68
2022/07/16 03:32:06;;;;;;;3.50;2.03;;;;;;;21.18;53.94;100441.91;5092723;28;20040;-69
2022/07/16 03:34:32;;;;;;;1.90;1.70;;;;;;;22.29;48.63;100445.88;5092756;28;20097;-69
2022/07/16 03:36:58;;;;;;;3.30;2.05;;;;;;;22.95;46.29;100435.16;5092473;28;20051;-70
2022/07/16 03:39:23;;;;;;;2.47;1.58;;;;;;;23.28;44.83;100439.66;5092919;28;20028;-68
2022/07/16 03:41:49;;;;;;;2.13;1.77;;;;;;;22.73;46.30;100448.69;5092745;28;20032;-69
2022/07/16 03:44:15;;;;;;;1.45;1.00;;;;;;;21.37;49.44;100453.41;5092480;28;20483;-67
2022/07/16 03:46:40;;;;;;;2.72;1.23;;;;;;;20.20;52.89;100448.06;5092515;28;20519;-68
2022/07/16 03:49:06;;;;;;;2.40;1.77;;;;;;;19.79;54.08;100450.56;5092400;28;20046;-69
2022/07/16 03:51:32;;;;;;;2.53;1.30;;;;;;;19.91;54.01;100453.28;5092226;28;20086;-68
2022/07/16 03:53:58;;;;;;;1.23;1.10;;;;;;;19.86;54.16;100453.16;5092507;28;20059;-68
2022/07/16 03:56:27;;;;;;;2.28;2.10;;;;;;;19.82;54.91;100460.09;5092685;28;20030;-68
2022/07/16 03:58:53;;;;;;;1.50;1.27;;;;;;;19.62;55.12;100459.53;5092366;28;20050;-69
2022/07/16 04:01:19;;;;;;;5.90;2.00;;;;;;;19.60;54.91;100467.03;5092339;28;20044;-70
2022/07/16 04:03:44;;;;;;;1.90;1.10;;;;;;;19.72;54.75;100460.66;5092219;28;20031;-67
2022/07/16 04:06:10;;;;;;;1.60;1.50;;;;;;;20.44;52.51;100474.09;5091799;28;20484;-68
2022/07/16 04:08:35;;;;;;;4.13;1.63;;;;;;;21.61;49.71;100469.31;5092300;28;20051;-67
2022/07/16 04:11:03;;;;;;;2.00;1.80;;;;;;;22.23;47.81;100468.53;5092045;28;20040;-69
2022/07/16 04:13:28;;;;;;;2.38;1.75;;;;;;;23.01;45.95;100464.84;5092200;28;20056;-68
2022/07/16 04:15:54;;;;;;;2.38;1.23;;;;;;;23.15;45.19;100463.41;5092111;28;20108;-68
2022/07/16 04:18:20;;;;;;;3.90;1.42;;;;;;;22.83;45.39;100465.13;5091939;28;20038;-69
2022/07/16 04:20:46;;;;;;;2.05;1.40;;;;;;;22.61;46.26;100466.97;5091617;28;20036;-68
2022/07/16 04:23:12;;;;;;;3.53;1.35;;;;;;;22.24;47.17;100478.31;5092164;28;20028;-69
2022/07/16 04:25:37;;;;;;;2.30;1.85;;;;;;;21.93;47.64;100485.09;5092080;28;20394;-68
2022/07/16 04:28:04;;;;;;;5.53;2.97;;;;;;;22.38;45.97;100479.66;5091967;28;20083;-68
2022/07/16 04:30:29;;;;;;;2.00;1.80;;;;;;;22.83;45.04;100476.00;5092874;28;20043;-72
2022/07/16 04:32:55;;;;;;;4.28;3.70;;;;;;;23.57;43.72;100481.88;5093871;28;20046;-69
2022/07/16 04:35:21;;;;;;;1.90;1.80;;;;;;;23.52;43.32;100484.50;5095922;28;20036;-70
2022/07/16 04:37:47;;;;;;;2.25;1.95;;;;;;;23.74;42.68;100490.75;5096318;28;20035;-69
2022/07/16 04:40:12;;;;;;;3.17;1.20;;;;;;;24.04;42.51;100497.59;5095868;28;20036;-69
2022/07/16 04:42:40;;;;;;;1.73;1.50;;;;;;;24.16;41.52;100492.78;5095908;28;20039;-68
2022/07/16 04:45:06;;;;;;;1.52;1.20;;;;;;;24.48;40.76;100500.16;5077758;28;20597;-70
2022/07/16 04:47:32;;;;;;;3.25;1.50;;;;;;;24.71;39.61;100495.16;5095632;28;20513;-68
2022/07/16 04:49:58;;;;;;;1.40;1.30;;;;;;;24.88;39.15;100502.34;5095861;28;20032;-69
2022/07/16 04:52:24;;;;;;;1.58;1.42;;;;;;;24.57;39.50;100504.03;5095951;28;20047;-68
2022/07/16 04:54:49;;;;;;;2.00;1.50;;;;;;;24.26;39.52;100498.31;5077716;28;20135;-68
2022/07/16 04:57:15;;;;;;;1.73;0.98;;;;;;;24.03;40.36;100502.19;5095705;28;20024;-69
2022/07/16 04:59:40;;;;;;;2.35;1.23;;;;;;;24.23;39.50;100490.66;5095928;28;20028;-68
2022/07/16 05:04:50;;;;;;;1.65;1.55;;;;;;;23.95;39.96;100509.97;5095587;28;20032;-70
2022/07/16 05:07:15;;;;;;;2.15;1.42;;;;;;;23.86;39.44;100495.22;5077276;28;20032;-69
2022/07/16 05:09:41;;;;;;;1.30;1.20;;;;;;;24.24;38.80;100508.63;5095702;28;20035;-69
2022/07/16 05:12:06;;;;;;;0.85;0.80;;;;;;;24.36;39.15;100512.06;5095226;28;20051;-69
2022/07/16 05:14:32;;;;;;;2.10;1.23;;;;;;;24.33;38.75;100515.28;5095173;28;20107;-70
2022/07/16 05:16:57;;;;;;;2.35;1.65;;;;;;;24.06;38.98;100522.63;5095442;28;20036;-68
2022/07/16 05:19:23;;;;;;;4.85;1.33;;;;;;;23.47;39.21;100508.91;5095136;28;20149;-70
2022/07/16 05:21:49;;;;;;;1.77;1.20;;;;;;;22.53;40.57;100500.75;5095228;28;20036;-69
2022/07/16 05:24:15;;;;;;;2.83;1.38;;;;;;;22.12;41.75;100526.41;5095291;28;20514;-69
2022/07/16 05:26:42;;;;;;;3.22;0.90;;;;;;;20.88;44.20;100504.34;5094753;28;20513;-67
2022/07/16 05:29:08;;;;;;;1.17;1.05;;;;;;;19.72;47.43;100519.25;5094876;28;20044;-70
2022/07/16 05:31:33;;;;;;;2.30;1.35;;;;;;;18.86;50.73;100525.63;5094793;28;20036;-68
2022/07/16 05:33:58;;;;;;;3.55;1.10;;;;;;;18.30;52.10;100521.09;5094858;28;20070;-69
2022/07/16 05:36:24;;;;;;;1.67;1.20;;;;;;;17.90;52.07;100520.50;5094975;28;20396;-69
2022/07/16 05:38:50;;;;;;;1.45;1.10;;;;;;;17.75;53.21;100511.91;5076754;28;20055;-69
2022/07/16 05:41:15;;;;;;;2.05;0.93;;;;;;;17.57;52.34;100517.97;5094813;28;20527;-67
2022/07/16 05:43:41;;;;;;;1.10;1.00;;;;;;;17.33;53.36;100496.09;5093909;28;20036;-69
2022/07/16 05:46:06;;;;;;;2.20;0.98;;;;;;;17.30;52.57;100512.69;5094261;28;20406;-67
2022/07/16 05:48:32;;;;;;;1.13;1.02;;;;;;;17.24;54.13;100515.41;5094531;28;20042;-69
2022/07/16 05:50:57;;;;;;;2.75;1.10;;;;;;;17.22;54.58;100526.38;5094879;28;20122;-68
2022/07/16 05:53:23;;;;;;;2.20;1.35;;;;;;;17.23;54.90;100529.91;5077056;28;20035;-69
2022/07/16 05:55:48;;;;;;;1.58;0.90;;;;;;;17.21;54.44;100529.28;5095241;28;20075;-68
2022/07/16 05:58:13;;;;;;;4.20;0.82;;;;;;;17.22;55.52;100530.94;5095086;28;20063;-67
2022/07/16 06:00:39;;;;;;;3.05;1.45;;;;;;;17.20;55.69;100535.72;5076423;28;20043;-68
2022/07/16 06:03:05;;;;;;;1.10;1.00;;;;;;;17.22;55.49;100530.94;5094387;28;20047;-68
2022/07/16 06:05:30;;;;;;;1.40;1.30;;;;;;;17.35;56.28;100533.59;5094330;28;20070;-70
2022/07/16 06:07:56;;;;;;;2.38;1.33;;;;;;;17.54;54.89;100532.69;5094403;28;20126;-67
2022/07/16 06:10:22;;;;;;;3.90;1.70;;;;;;;17.49;55.08;100535.19;5094197;28;20036;-70
2022/07/16 06:12:48;;;;;;;1.63;1.02;;;;;;;17.39;54.21;100532.13;5094184;28;20082;-69
2022/07/16 06:15:14;;;;;;;3.40;1.13;;;;;;;17.28;54.26;100530.91;5094355;28;20032;-66
2022/07/16 06:17:40;;;;;;;4.78;1.23;;;;;;;17.31;55.53;100546.63;5093917;28;20043;-69
2022/07/16 06:20:06;;;;;;;3.40;1.17;;;;;;;17.29;55.82;100540.63;5094229;28;20032;-70
2022/07/16 06:22:33;;;;;;;2.88;1.08;;;;;;;17.50;55.71;100542.22;5094425;28;20043;-68
2022/07/16 06:24:58;;;;;;;2.17;1.00;;;;;;;17.80;54.33;100547.94;5094254;28;20563;-68
2022/07/16 06:27:26;;;;;;;4.50;2.35;;;;;;;17.91;53.08;100549.09;5108292;28;20036;-69
2022/07/16 06:30:17;;;;;;;1.20;0.88;;;;;;;17.85;52.41;100555.38;5115235;28;20097;-69
2022/07/16 06:32:43;;;;;;;1.27;0.80;;;;;;;17.75;52.71;100553.16;5117635;28;20023;-69
2022/07/16 06:35:10;;;;;;;3.47;1.10;;;;;;;17.62;52.89;100564.75;5119681;28;20008;-67
2022/07/16 06:37:35;;;;;;;3.67;1.98;;;;;;;17.49;51.87;100551.34;5096884;28;20036;-67
2022/07/16 06:40:01;;;;;;;3.58;1.80;;;;;;;17.57;52.18;100561.88;5094177;28;20043;-69
2022/07/16 06:42:28;;;;;;;1.98;1.13;;;;;;;17.54;51.99;100565.00;5093906;28;20032;-68
2022/07/16 06:44:54;;;;;;;3.97;0.70;;;;;;;17.72;52.84;100560.81;5095032;28;20410;-70
2022/07/16 06:47:19;;;;;;;2.25;1.05;;;;;;;17.89;51.59;100557.41;5093774;28;20036;-69
2022/07/16 06:49:44;;;;;;;1.33;1.10;;;;;;;17.94;50.98;100565.69;5093671;28;20039;-68
2022/07/16 06:52:10;;;;;;;5.85;2.22;;;;;;;18.00;51.75;100563.19;5093552;28;20071;-68
2022/07/16 06:54:36;;;;;;;2.88;1.50;;;;;;;18.07;51.93;100564.78;5092876;28;20032;-69
2022/07/16 06:57:01;;;;;;;1.77;1.00;;;;;;;18.11;52.52;100568.69;5108754;28;20036;-68
2022/07/16 06:59:27;;;;;;;6.45;1.65;;;;;;;18.14;50.34;100557.47;5093685;28;20122;-68
2022/07/16 07:01:52;;;;;;;7.00;2.75;;;;;;;18.18;51.97;100564.09;5093296;28;20487;-69
2022/07/16 07:04:18;;;;;;;1.50;1.20;;;;;;;18.29;51.40;100570.66;5093216;28;20044;-69
2022/07/16 07:06:43;;;;;;;3.95;1.10;;;;;;;18.35;50.94;100561.69;5093255;28;20089;-69
2022/07/16 07:09:09;;;;;;;1.88;1.20;;;;;;;18.38;51.04;100549.66;5093226;28;20032;-69
2022/07/16 07:11:34;;;;;;;4.10;0.93;;;;;;;18.38;50.58;100560.44;5074744;28;20036;-69
2022/07/16 07:14:00;;;;;;;3.35;1.00;;;;;;;18.35;50.98;100556.31;5092936;28;20036;-69
2022/07/16 07:16:25;;;;;;;2.55;1.08;;;;;;;18.41;50.61;100570.78;5093416;28;20043;-67
2022/07/16 07:18:51;;;;;;;3.67;1.02;;;;;;;18.33;50.83;100568.34;5093321;28;20036;-68
2022/07/16 07:21:16;;;;;;;5.38;0.98;;;;;;;18.31;50.57;100565.88;5093038;28;20423;-68
2022/07/16 07:23:42;;;;;;;1.30;1.17;;;;;;;18.32;50.62;100570.22;5093220;28;20038;-69
2022/07/16 07:26:07;;;;;;;1.25;0.90;;;;;;;18.22;51.50;100568.03;5092702;28;20449;-69
2022/07/16 07:28:35;;;;;;;1.48;0.95;;;;;;;18.29;49.25;100572.53;5093110;28;20087;-68
2022/07/16 07:31:01;;;;;;;2.05;0.90;;;;;;;18.34;48.01;100570.84;5093022;28;20089;-68
2022/07/16 07:33:27;;;;;;;4.28;2.67;;;;;;;18.36;47.94;100562.53;5074787;28;20036;-69
2022/07/16 07:35:53;;;;;;;2.03;0.90;;;;;;;18.41;48.17;100576.16;5092747;28;20024;-69
2022/07/16 07:38:18;;;;;;;1.58;1.48;;;;;;;18.07;49.12;100548.63;5092513;28;20040;-68
2022/07/16 07:40:44;;;;;;;1.67;1.55;;;;;;;18.15;48.91;100578.00;5092628;28;20058;-69
2022/07/16 07:43:09;;;;;;;3.15;1.50;;;;;;;18.11;49.71;100566.00;5092514;28;20510;-69
2022/07/16 07:45:35;;;;;;;4.05;2.22;;;;;;;18.21;49.28;100576.28;5092595;28;20074;-69
2022/07/16 07:48:00;;;;;;;1.23;0.95;;;;;;;18.17;48.85;100581.28;5092410;28;20077;-69
2022/07/16 07:50:26;;;;;;;3.20;1.00;;;;;;;18.25;49.97;100586.44;5092481;28;20613;-68
2022/07/16 07:52:52;;;;;;;2.03;1.08;;;;;;;18.17;46.85;100581.28;5092329;28;20081;-69
2022/07/16 07:55:18;;;;;;;1.38;0.77;;;;;;;18.09;47.36;100573.47;5092185;28;20043;-70
2022/07/16 07:57:44;;;;;;;2.00;0.90;;;;;;;18.08;47.03;100592.56;5092494;28;20036;-67
2022/07/16 08:00:10;;;;;;;3.50;1.10;;;;;;;18.18;48.64;100596.41;5092382;28;20423;-70
2022/07/16 08:02:36;;;;;;;4.03;1.40;;;;;;;18.22;48.22;100600.38;5092227;28;20036;-69
2022/07/16 08:05:03;;;;;;;3.00;1.02;;;;;;;18.33;48.35;100600.72;5092761;28;20426;-68
2022/07/16 08:07:28;;;;;;;1.48;1.00;;;;;;;18.46;48.15;100600.59;5091964;28;20119;-69
2022/07/16 08:09:54;;;;;;;1.30;1.20;;;;;;;18.66;47.80;100601.31;5091967;28;20040;-70
2022/07/16 08:12:19;;;;;;;1.25;0.80;;;;;;;18.79;48.51;100590.44;5092331;28;20040;-69
2022/07/16 08:14:45;;;;;;;2.78;1.35;;;;;;;19.02;47.98;100597.91;5092227;28;20193;-68
2022/07/16 08:17:10;;;;;;;1.80;1.13;;;;;;;19.11;45.97;100603.84;5092347;28;20047;-69
2022/07/16 08:19:36;;;;;;;1.15;1.00;;;;;;;19.01;46.24;100598.94;5074028;28;20558;-68
2022/07/16 08:22:02;;;;;;;1.90;0.90;;;;;;;19.02;45.49;100600.59;5092043;28;20044;-66
2022/07/16 08:27:13;;;;;;;6.05;1.38;;;;;;;19.07;46.06;100597.22;5091924;28;20052;-69
2022/07/16 08:29:40;;;;;;;0.90;0.82;;;;;;;19.08;46.88;100601.56;5092115;28;20050;-69
2022/07/16 08:32:06;;;;;;;2.03;1.25;;;;;;;19.13;47.05;100596.38;5108041;28;20079;-69
2022/07/16 08:34:31;;;;;;;2.15;1.00;;;;;;;19.21;46.78;100590.66;5092056;28;20064;-68
2022/07/16 08:36:57;;;;;;;2.67;0.93;;;;;;;19.23;46.50;100599.38;5091605;28;20509;-69
2022/07/16 08:39:22;;;;;;;1.40;0.80;;;;;;;19.09;46.68;100595.16;5091921;28;20035;-69
2022/07/16 08:41:51;;;;;;;1.45;1.05;;;;;;;19.20;46.46;100591.72;5095313;28;20031;-70
2022/07/16 08:44:20;;;;;;;5.35;1.20;;;;;;;19.36;45.64;100607.31;5058531;28;20040;-70
2022/07/16 08:46:46;;;;;;;3.10;2.25;;;;;;;19.34;44.89;100598.63;5091748;28;20134;-69
2022/07/16 08:49:12;;;;;;;1.13;0.88;;;;;;;19.32;45.43;100606.13;5092100;28;20028;-68
2022/07/16 08:51:39;;;;;;;3.38;1.25;;;;;;;19.31;46.43;100612.56;5091827;28;20036;-71
2022/07/16 08:54:17;;;;;;;1.48;1.10;;;;;;;19.22;45.85;100605.81;5092180;28;20032;-68
2022/07/16 08:56:43;;;;;;;1.98;1.40;;;;;;;19.18;46.70;100602.75;5091750;28;20043;-68
2022/07/16 08:59:09;;;;;;;1.95;0.90;;;;;;;19.19;46.81;100607.09;5091218;28;20401;-67
2022/07/16 09:01:35;;;;;;;4.38;1.25;;;;;;;19.06;47.95;100628.78;5091538;28;20040;-64
2022/07/16 09:04:02;;;;;;;2.33;1.08;;;;;;;18.91;50.17;100631.00;5091523;28;20123;-65
2022/07/16 09:06:28;;;;;;;2.55;1.23;;;;;;;18.69;50.43;100622.47;5107396;28;20036;-68
2022/07/16 09:08:55;;;;;;;2.58;0.98;;;;;;;18.62;50.79;100626.22;5091778;28;20032;-66
2022/07/16 09:11:26;;;;;;;3.00;1.13;;;;;;;18.74;50.50;100619.94;5091735;28;20089;-65
2022/07/16 09:14:13;;;;;;;5.35;3.70;;;;;;;19.21;49.85;100620.38;5091615;28;20084;-67
2022/07/16 09:16:39;;;;;;;13.02;3.05;;;;;;;19.34;49.80;100622.91;5091423;28;20044;-66
2022/07/16 09:19:10;;;;;;;5.88;1.20;;;;;;;19.17;50.17;100624.56;5109127;28;20488;-68
2022/07/16 09:21:56;;;;;;;1.20;0.80;;;;;;;19.19;51.79;100628.69;5095375;28;20043;-67
2022/07/16 09:24:40;;;;;;;2.47;0.88;;;;;;;19.02;49.67;100618.66;5093186;28;20569;-69
2022/07/16 09:27:11;;;;;;;1.52;0.93;;;;;;;18.94;50.29;100618.94;5093014;28;20063;-66
2022/07/16 09:29:45;;;;;;;1.90;1.30;;;;;;;19.15;49.01;100626.66;5093499;28;20419;-69
2022/07/16 09:32:11;;;;;;;1.83;1.02;;;;;;;19.31;48.01;100615.28;5093805;28;20207;-69
2022/07/16 09:34:37;;;;;;;2.85;1.58;;;;;;;19.50;47.59;100626.94;5093548;28;20044;-68
2022/07/16 09:37:05;;;;;;;2.50;1.50;;;;;;;19.50;46.64;100626.94;5093391;28;20372;-68
2022/07/16 09:39:32;;;;;;;1.35;1.25;;;;;;;19.48;46.68;100627.16;5094791;28;20043;-67
2022/07/16 09:41:58;;;;;;;1.20;0.82;;;;;;;19.47;45.57;100624.69;5094822;28;20491;-68
2022/07/16 09:44:26;;;;;;;1.73;1.63;;;;;;;19.63;46.13;100626.78;5076993;28;20035;-68
2022/07/16 09:47:08;;;;;;;2.10;0.80;;;;;;;19.80;46.16;100635.13;5094954;28;20036;-66
2022/07/16 09:49:36;;;;;;;5.20;1.30;;;;;;;19.42;46.63;100617.25;5094727;28;20380;-66
2022/07/16 09:52:04;;;;;;;4.70;1.63;;;;;;;18.93;49.12;100615.44;5094421;28;20040;-68
2022/07/16 09:54:34;;;;;;;3.13;1.03;;;;;;;18.55;52.70;100653.25;5094543;28;20135;-68
2022/07/16 09:57:07;;;;;;;3.05;1.40;;;;;;;18.16;58.56;100663.19;5094515;28;20491;-67
2022/07/16 09:59:33;;;;;;;2.20;1.35;;;;;;;17.79;58.95;100637.88;5076401;28;20052;-68
2022/07/16 10:02:00;;;;;;;3.40;1.45;;;;;;;17.60;63.02;100644.94;5094435;28;20036;-69
2022/07/16 10:04:26;;;;;;;2.42;1.17;;;;;;;17.60;66.11;100658.38;5076199;28;20495;-66
2022/07/16 10:06:52;;;;;;;3.58;1.42;;;;;;;17.84;65.63;100648.00;5076317;28;20043;-70
2022/07/16 10:09:18;;;;;;;3.75;1.70;;;;;;;18.32;62.24;100653.81;5094318;28;20521;-68
2022/07/16 10:11:44;;;;;;;3.92;1.55;;;;;;;18.88;60.58;100653.06;5094135;28;20516;-70
2022/07/16 10:14:10;;;;;;;4.95;1.52;;;;;;;19.23;56.31;100650.66;5094246;28;20618;-69
2022/07/16 10:16:45;;;;;;;2.97;1.73;;;;;;;19.25;54.14;100655.84;5094223;28;20384;-67
2022/07/16 10:19:16;;;;;;;1.35;1.10;;;;;;;19.36;52.57;100664.03;5094083;28;20120;-70
2022/07/16 10:22:11;;;;;;;2.47;1.17;;;;;;;19.48;52.81;100666.84;5094354;28;20491;-68
2022/07/16 10:24:50;;;;;;;1.55;1.35;;;;;;;19.36;52.59;100666.72;5093941;28;20032;-67
2022/07/16 10:27:35;;;;;;;2.15;1.70;;;;;;;19.48;54.04;100670.38;5093824;28;20117;-70
2022/07/16 10:30:23;;;;;;;2.50;1.73;;;;;;;19.48;53.98;100675.75;5094201;28;20102;-69
2022/07/16 10:33:02;;;;;;;1.88;1.40;;;;;;;19.57;54.61;100662.00;5093962;28;20493;-69
2022/07/16 10:35:50;;;;;;;3.90;1.90;;;;;;;19.55;51.87;100667.63;5093823;28;20044;-69
2022/07/16 10:38:24;;;;;;;5.18;0.90;;;;;;;19.59;50.74;100665.28;5094331;28;20131;-71
2022/07/16 10:41:04;;;;;;;3.30;1.50;;;;;;;19.56;51.14;100680.06;5093911;28;20063;-68
2022/07/16 10:43:30;;;;;;;1.33;1.23;;;;;;;19.52;51.21;100684.25;5093740;28;20032;-68
2022/07/16 10:45:56;;;;;;;4.40;1.60;;;;;;;19.58;50.98;100693.34;5093515;28;20127;-67
2022/07/16 10:48:49;;;;;;;1.90;1.20;;;;;;;19.58;51.52;100694.19;5093612;28;20034;-66
2022/07/16 10:51:22;;;;;;;5.78;1.35;;;;;;;19.40;55.42;100688.75;5079257;28;20093;-68
2022/07/16 10:54:13;;;;;;;4.43;0.98;;;;;;;19.28;50.94;100696.72;5058573;28;20088;-68
2022/07/16 10:56:52;;;;;;;3.53;1.75;;;;;;;19.30;51.64;100691.91;5082466;28;20101;-68
2022/07/16 10:59:26;;;;;;;3.83;1.20;;;;;;;19.44;52.06;100698.88;5093387;28;20047;-65
2022/07/16 11:01:55;;;;;;;2.53;1.17;;;;;;;19.67;51.20;100689.34;5093555;28;20039;-66
2022/07/16 11:04:31;;;;;;;3.25;1.20;;;;;;;19.86;48.21;100695.56;5093533;28;20395;-68
2022/07/16 11:06:58;;;;;;;1.52;0.98;;;;;;;19.88;46.11;100696.16;5093004;28;20040;-67
2022/07/16 11:09:31;;;;;;;1.70;1.17;;;;;;;19.93;45.56;100699.81;5093249;28;20089;-66
2022/07/16 11:12:10;;;;;;;2.75;0.93;;;;;;;20.25;45.33;100696.97;5074977;28;20419;-69
2022/07/16 11:14:37;;;;;;;3.42;1.40;;;;;;;20.21;45.27;100677.66;5093049;28;20043;-68
2022/07/16 11:17:03;;;;;;;3.03;0.88;;;;;;;20.18;44.30;100701.63;5092930;28;20042;-67
2022/07/16 11:19:29;;;;;;;0.95;0.75;;;;;;;19.87;45.01;100699.91;5092734;28;20040;-67
2022/07/16 11:22:00;;;;;;;1.33;1.00;;;;;;;19.74;45.39;100706.28;5093009;28;20032;-67
2022/07/16 11:24:27;;;;;;;4.05;1.23;;;;;;;19.64;46.33;100714.06;5093062;28;20513;-67
2022/07/16 11:26:57;;;;;;;2.33;1.15;;;;;;;19.39;46.51;100712.22;5092531;28;20040;-68
2022/07/16 11:29:24;;;;;;;2.83;0.90;;;;;;;19.19;47.48;100712.38;5092953;28;20035;-67
2022/07/16 11:31:59;;;;;;;3.90;1.10;;;;;;;18.94;49.06;100710.72;5092888;28;20138;-69